Nenita — V7SY9 — position and weather

sailwx.info

Track history (hours):
 
Tides and Currents Weather Stations Pressure Air Temp Water Temp Dewpoint Dewpoint Depression Visibility Wind Speed Wind Dir Waves Ship Positions

Nenita

Last reported at 2018-Jun-21 22:45 UTC. Time now 2018-Jul-17 07:42 UTC.
Position N 01°23' E 104°26'.
Warning: this ship's position is 25 days out of date.

Length 225 m; draft 14.8 m.

Type: Cargo ship. MMSI: 538006917.

Date/timePositionNaut miles runAvg speedWind from/ knotsBaromVisibWave heightAir tempDewpointWater temp
2018-Jun-21 22:45N 01°23' E 104°26'512.0
2018-Jun-21 22:18N 01°19' E 104°22'411.7
2018-Jun-21 21:58N 01°17' E 104°19'511.6
2018-Jun-21 21:30N 01°17' E 104°13'611.5
2018-Jun-21 20:58N 01°16' E 104°07'510.7
2018-Jun-21 20:30N 01°15' E 104°02'4 8.5
2018-Jun-21 19:59N 01°16' E 103°58'2 4.7
2018-Jun-21 19:30N 01°16' E 103°56'0 0.3
2018-Jun-21 19:00N 01°16' E 103°56'0 0.1
2018-Jun-21 18:30N 01°16' E 103°56'0 0.1
2018-Jun-21 17:59N 01°16' E 103°56'0 0.0
2018-Jun-21 17:20N 01°16' E 103°56'0 0.0
2018-Jun-21 16:57N 01°16' E 103°56'0 0.1
2018-Jun-21 16:30N 01°16' E 103°56'0 0.0
2018-Jun-21 15:56N 01°16' E 103°56'0 0.0
2018-Jun-21 15:30N 01°16' E 103°56'0 0.0
2018-Jun-21 14:59N 01°16' E 103°56'0 0.0
2018-Jun-21 14:23N 01°16' E 103°56'0 0.0
2018-Jun-21 13:47N 01°16' E 103°56'0 0.0
2018-Jun-21 13:27N 01°16' E 103°56'0 0.1
2018-Jun-21 12:57N 01°16' E 103°56'0 0.1
2018-Jun-21 12:30N 01°16' E 103°56'0 0.0
2018-Jun-21 11:59N 01°16' E 103°56'0 0.0
2018-Jun-21 11:26N 01°16' E 103°56'0 0.0
2018-Jun-21 11:00N 01°16' E 103°56'0 0.0
2018-Jun-21 10:30N 01°16' E 103°56'0 0.0
2018-Jun-21 09:57N 01°16' E 103°56'0 0.0
2018-Jun-21 09:30N 01°16' E 103°56'0 0.1
2018-Jun-21 08:44N 01°16' E 103°56'0 0.8
2018-Jun-21 08:30N 01°16' E 103°56'3 4.9
2018-Jun-21 07:57N 01°16' E 103°59'3 6.7
2018-Jun-21 07:30N 01°16' E 104°02'5 9.5
2018-Jun-21 06:59N 01°17' E 104°06'611.7
2018-Jun-21 06:31N 01°17' E 104°12'4 7.7
2018-Jun-21 05:59N 01°18' E 104°16'3 5.7
2018-Jun-21 05:27N 01°19' E 104°19'3 6.4
2018-Jun-21 04:59N 01°21' E 104°21'510.1
2018-Jun-21 04:28N 01°24' E 104°25'610.4
2018-Jun-21 03:55N 01°28' E 104°29'3610.9
2018-Jun-21 00:34N 01°20' E 105°05'3112.5
2018-Jun-20 22:03N 00°59' E 105°28'113.1
2018-Jun-20 21:58N 00°58' E 105°29'  
Track history (hours):
 
Tides and Currents Weather Stations Pressure Air Temp Water Temp Dewpoint Dewpoint Depression Visibility Wind Speed Wind Dir Waves Ship Positions

Nenita

Last reported at 2018-Jun-21 22:45 UTC. Time now 2018-Jul-17 07:42 UTC.
Position N 01°23' E 104°26'.
Warning: this ship's position is 25 days out of date.

Length 225 m; draft 14.8 m.

Type: Cargo ship. MMSI: 538006917.

Date/timePositionNaut miles runAvg speedWind from/ knotsBaromVisibWave heightAir tempDewpointWater temp
2018-Jun-21 22:45N 01°23' E 104°26'512.0
2018-Jun-21 22:18N 01°19' E 104°22'411.7
2018-Jun-21 21:58N 01°17' E 104°19'511.6
2018-Jun-21 21:30N 01°17' E 104°13'611.5
2018-Jun-21 20:58N 01°16' E 104°07'510.7
2018-Jun-21 20:30N 01°15' E 104°02'4 8.5
2018-Jun-21 19:59N 01°16' E 103°58'2 4.7
2018-Jun-21 19:30N 01°16' E 103°56'0 0.3
2018-Jun-21 19:00N 01°16' E 103°56'0 0.1
2018-Jun-21 18:30N 01°16' E 103°56'0 0.1
2018-Jun-21 17:59N 01°16' E 103°56'0 0.0
2018-Jun-21 17:20N 01°16' E 103°56'0 0.0
2018-Jun-21 16:57N 01°16' E 103°56'0 0.1
2018-Jun-21 16:30N 01°16' E 103°56'0 0.0
2018-Jun-21 15:56N 01°16' E 103°56'0 0.0
2018-Jun-21 15:30N 01°16' E 103°56'0 0.0
2018-Jun-21 14:59N 01°16' E 103°56'0 0.0
2018-Jun-21 14:23N 01°16' E 103°56'0 0.0
2018-Jun-21 13:47N 01°16' E 103°56'0 0.0
2018-Jun-21 13:27N 01°16' E 103°56'0 0.1
2018-Jun-21 12:57N 01°16' E 103°56'0 0.1
2018-Jun-21 12:30N 01°16' E 103°56'0 0.0
2018-Jun-21 11:59N 01°16' E 103°56'0 0.0
2018-Jun-21 11:26N 01°16' E 103°56'0 0.0
2018-Jun-21 11:00N 01°16' E 103°56'0 0.0
2018-Jun-21 10:30N 01°16' E 103°56'0 0.0
2018-Jun-21 09:57N 01°16' E 103°56'0 0.0
2018-Jun-21 09:30N 01°16' E 103°56'0 0.1
2018-Jun-21 08:44N 01°16' E 103°56'0 0.8
2018-Jun-21 08:30N 01°16' E 103°56'3 4.9
2018-Jun-21 07:57N 01°16' E 103°59'3 6.7
2018-Jun-21 07:30N 01°16' E 104°02'5 9.5
2018-Jun-21 06:59N 01°17' E 104°06'611.7
2018-Jun-21 06:31N 01°17' E 104°12'4 7.7
2018-Jun-21 05:59N 01°18' E 104°16'3 5.7
2018-Jun-21 05:27N 01°19' E 104°19'3 6.4
2018-Jun-21 04:59N 01°21' E 104°21'510.1
2018-Jun-21 04:28N 01°24' E 104°25'610.4
2018-Jun-21 03:55N 01°28' E 104°29'3610.9
2018-Jun-21 00:34N 01°20' E 105°05'3112.5
2018-Jun-20 22:03N 00°59' E 105°28'113.1
2018-Jun-20 21:58N 00°58' E 105°29'  

Dump ship's entire track history